createdAt,value
2023-01-02T00:01:05.689Z,3.28
2023-01-02T00:03:33.098Z,3.48
2023-01-02T00:06:02.555Z,3.29
2023-01-02T00:08:29.861Z,3.68
2023-01-02T00:10:57.045Z,3.74
2023-01-02T00:13:24.315Z,3.64
2023-01-02T00:15:51.439Z,3.62
2023-01-02T00:18:20.117Z,3.33
2023-01-02T00:20:47.278Z,3.38
2023-01-02T00:23:14.353Z,3.58
2023-01-02T00:25:41.843Z,3.81
2023-01-02T00:28:09.108Z,3.70
2023-01-02T00:30:38.783Z,3.83
2023-01-02T00:33:06.995Z,3.84
2023-01-02T00:35:38.362Z,3.74
2023-01-02T00:38:06.234Z,3.38
2023-01-02T00:40:34.558Z,3.36
2023-01-02T00:43:01.993Z,3.26
2023-01-02T00:45:29.434Z,3.84
2023-01-02T00:47:57.004Z,3.48
2023-01-02T00:50:24.195Z,3.39
2023-01-02T00:52:52.833Z,3.17
2023-01-02T00:55:19.915Z,3.11
2023-01-02T00:57:47.015Z,3.39
2023-01-02T01:00:20.098Z,3.53
2023-01-02T01:02:54.644Z,3.24
2023-01-02T01:05:21.742Z,3.52
2023-01-02T01:07:49.312Z,3.12
2023-01-02T01:10:18.073Z,2.87
2023-01-02T01:12:45.273Z,3.27
2023-01-02T01:15:12.455Z,2.90
2023-01-02T01:17:39.753Z,3.26
2023-01-02T01:20:08.320Z,3.23
2023-01-02T01:22:35.487Z,3.19
2023-01-02T01:25:02.652Z,2.96
2023-01-02T01:27:31.249Z,3.23
2023-01-02T01:29:58.473Z,2.96
2023-01-02T01:32:25.692Z,3.20
2023-01-02T01:34:52.900Z,3.07
2023-01-02T01:37:20.066Z,3.05
2023-01-02T01:39:47.132Z,3.19
2023-01-02T01:42:15.404Z,3.19
2023-01-02T01:44:49.132Z,3.29
2023-01-02T01:47:26.214Z,3.20
2023-01-02T01:50:05.167Z,2.94
2023-01-02T01:52:36.349Z,2.91
2023-01-02T01:55:11.600Z,3.10
2023-01-02T01:57:45.012Z,3.46
2023-01-02T02:00:14.516Z,3.05
2023-01-02T02:02:46.980Z,2.93
2023-01-02T02:05:19.835Z,3.00
2023-01-02T02:08:08.247Z,2.76
2023-01-02T02:10:37.032Z,2.98
2023-01-02T02:13:04.316Z,2.98
2023-01-02T02:15:50.749Z,3.00
2023-01-02T02:18:33.809Z,2.92
2023-01-02T02:21:13.751Z,2.90
2023-01-02T02:24:11.531Z,2.66
2023-01-02T02:27:04.692Z,3.00
2023-01-02T02:30:03.174Z,3.02
2023-01-02T02:32:49.729Z,2.86
2023-01-02T02:35:28.931Z,2.71
2023-01-02T02:38:05.496Z,2.68
2023-01-02T02:40:46.114Z,2.80
2023-01-02T02:43:23.633Z,2.79
2023-01-02T02:46:03.606Z,2.89
2023-01-02T02:48:46.512Z,2.74
2023-01-02T02:51:21.633Z,2.98
2023-01-02T02:53:56.042Z,3.00
2023-01-02T02:56:28.045Z,1.44
2023-01-02T02:58:56.522Z,1.80
2023-01-02T03:01:30.795Z,1.62
2023-01-02T03:03:58.445Z,1.89
2023-01-02T03:06:44.874Z,2.18
2023-01-02T03:09:21.673Z,1.87
2023-01-02T03:12:01.531Z,2.13
2023-01-02T03:14:39.990Z,2.15
2023-01-02T03:17:23.785Z,1.93
2023-01-02T03:19:58.573Z,2.59
2023-01-02T03:22:33.287Z,2.39
2023-01-02T03:25:01.506Z,2.43
2023-01-02T03:27:35.385Z,2.22
2023-01-02T03:30:06.904Z,2.36
2023-01-02T03:32:43.027Z,2.41
2023-01-02T03:35:17.526Z,2.47
2023-01-02T03:37:50.066Z,2.29
2023-01-02T03:40:25.080Z,2.49
2023-01-02T03:42:59.844Z,2.42
2023-01-02T03:45:32.295Z,2.54
2023-01-02T03:48:10.647Z,2.51
2023-01-02T03:50:47.366Z,2.60
2023-01-02T03:53:14.767Z,2.56
2023-01-02T03:55:49.741Z,2.57
2023-01-02T03:58:29.144Z,2.78
2023-01-02T04:01:04.692Z,3.10
2023-01-02T04:03:40.729Z,2.97
2023-01-02T04:06:28.090Z,2.68
2023-01-02T04:09:04.985Z,2.59
2023-01-02T04:11:38.692Z,2.54
2023-01-02T04:14:13.611Z,2.67
2023-01-02T04:16:44.853Z,2.85
2023-01-02T04:19:21.488Z,2.56
2023-01-02T04:21:52.929Z,2.47
2023-01-02T04:24:27.552Z,2.73
2023-01-02T04:27:02.291Z,2.53
2023-01-02T04:29:30.744Z,2.69
2023-01-02T04:32:04.359Z,2.93
2023-01-02T04:34:37.798Z,2.50
2023-01-02T04:37:05.234Z,2.22
2023-01-02T04:39:36.427Z,2.31
2023-01-02T04:42:04.979Z,2.35
2023-01-02T04:44:32.118Z,2.42
2023-01-02T04:46:59.202Z,2.23
2023-01-02T04:49:26.480Z,2.45
2023-01-02T04:51:55.124Z,2.44
2023-01-02T04:54:22.227Z,2.18
2023-01-02T04:56:49.365Z,2.27
2023-01-02T04:59:16.538Z,2.28
2023-01-02T05:01:43.671Z,2.42
2023-01-02T05:04:10.907Z,2.12
2023-01-02T05:06:38.023Z,2.09
2023-01-02T05:09:06.644Z,2.57
2023-01-02T05:11:33.845Z,2.31
2023-01-02T05:14:06.959Z,2.19
2023-01-02T05:16:34.812Z,2.32
2023-01-02T05:19:01.909Z,2.13
2023-01-02T05:21:29.055Z,2.41
2023-01-02T05:23:57.615Z,2.46
2023-01-02T05:26:26.206Z,2.39
2023-01-02T05:28:54.236Z,2.37
2023-01-02T05:31:21.804Z,2.40
2023-01-02T05:33:51.748Z,2.38
2023-01-02T05:36:19.185Z,2.37
2023-01-02T05:38:46.412Z,2.50
2023-01-02T05:41:13.533Z,2.33
2023-01-02T05:43:42.466Z,2.39
2023-01-02T05:46:11.912Z,2.12
2023-01-02T05:48:40.486Z,2.40
2023-01-02T05:51:09.668Z,2.23
2023-01-02T05:53:37.756Z,2.32
2023-01-02T05:56:06.993Z,2.22
2023-01-02T05:58:35.488Z,2.43
2023-01-02T06:01:10.226Z,2.23
2023-01-02T06:03:37.484Z,2.24
2023-01-02T06:06:06.866Z,2.57
2023-01-02T06:08:35.031Z,2.03
2023-01-02T06:11:03.130Z,2.21
2023-01-02T06:13:31.187Z,2.20
2023-01-02T06:16:00.467Z,2.20
2023-01-02T06:18:31.991Z,2.18
2023-01-02T06:21:00.129Z,2.74
2023-01-02T06:23:27.535Z,1.94
2023-01-02T06:25:54.888Z,2.13
2023-01-02T06:28:22.464Z,2.13
2023-01-02T06:30:49.556Z,2.09
2023-01-02T06:33:16.649Z,2.11
2023-01-02T06:35:45.114Z,2.19
2023-01-02T06:38:12.261Z,2.21
2023-01-02T06:40:39.334Z,2.27
2023-01-02T06:43:06.449Z,2.06
2023-01-02T06:45:33.587Z,2.44
2023-01-02T06:48:00.725Z,2.26
2023-01-02T06:50:34.632Z,2.23
2023-01-02T06:53:03.834Z,2.27
2023-01-02T06:55:31.035Z,2.32
2023-01-02T06:58:00.906Z,2.57
2023-01-02T07:00:30.781Z,2.24
2023-01-02T07:02:58.009Z,2.46
2023-01-02T07:05:25.223Z,2.23
2023-01-02T07:07:52.303Z,2.19
2023-01-02T07:10:20.903Z,2.31
2023-01-02T07:12:47.984Z,2.34
2023-01-02T07:15:15.228Z,2.23
2023-01-02T07:17:42.405Z,2.28
2023-01-02T07:20:10.562Z,2.19
2023-01-02T07:22:37.841Z,2.09
2023-01-02T07:25:06.145Z,2.34
2023-01-02T07:27:34.729Z,2.18
2023-01-02T07:30:01.874Z,2.07
2023-01-02T07:32:28.967Z,2.13
2023-01-02T07:34:56.155Z,2.13
2023-01-02T07:37:23.292Z,2.23
2023-01-02T07:39:50.485Z,2.18
2023-01-02T07:42:17.535Z,2.18
2023-01-02T07:44:46.049Z,2.41
2023-01-02T07:47:13.166Z,1.90
2023-01-02T07:49:40.240Z,2.13
2023-01-02T07:52:09.640Z,2.18
2023-01-02T07:54:36.860Z,2.13
2023-01-02T07:57:04.143Z,1.80
2023-01-02T07:59:31.274Z,2.08
2023-01-02T08:01:59.930Z,2.25
2023-01-02T08:04:27.151Z,2.09
2023-01-02T08:06:54.264Z,2.13
2023-01-02T08:09:21.445Z,2.12
2023-01-02T08:11:48.602Z,2.01
2023-01-02T08:14:21.578Z,1.98
2023-01-02T08:16:50.519Z,2.10
2023-01-02T08:19:19.267Z,2.06
2023-01-02T08:21:46.428Z,2.06
2023-01-02T08:24:13.595Z,2.07
2023-01-02T08:26:40.846Z,2.17
2023-01-02T08:29:07.933Z,2.09
2023-01-02T08:31:41.776Z,1.88
2023-01-02T08:34:10.778Z,2.02
2023-01-02T08:36:39.348Z,2.22
2023-01-02T08:39:06.575Z,2.18
2023-01-02T08:41:35.331Z,2.01
2023-01-02T08:44:03.290Z,2.01
2023-01-02T08:46:36.837Z,2.08
2023-01-02T08:49:07.385Z,2.09
2023-01-02T08:51:34.525Z,2.05
2023-01-02T08:54:03.374Z,2.25
2023-01-02T08:56:32.501Z,2.25
2023-01-02T08:59:02.302Z,2.32
2023-01-02T09:01:32.258Z,2.46
2023-01-02T09:04:01.810Z,2.34
2023-01-02T09:06:33.043Z,2.21
2023-01-02T09:09:09.240Z,2.29
2023-01-02T09:11:44.183Z,2.03
2023-01-02T09:14:11.263Z,2.26
2023-01-02T09:16:38.476Z,2.17
2023-01-02T09:19:05.587Z,2.02
2023-01-02T09:21:32.790Z,2.35
2023-01-02T09:24:00.206Z,1.99
2023-01-02T09:26:28.796Z,1.99
2023-01-02T09:28:56.026Z,2.25
2023-01-02T09:31:23.567Z,2.05
2023-01-02T09:33:52.545Z,1.95
2023-01-02T09:36:21.817Z,2.13
2023-01-02T09:38:52.986Z,2.37
2023-01-02T09:41:33.321Z,2.27
2023-01-02T09:44:05.650Z,2.12
2023-01-02T09:46:40.561Z,2.08
2023-01-02T09:49:14.968Z,2.02
2023-01-02T09:51:44.890Z,2.01
2023-01-02T09:54:22.831Z,1.97
2023-01-02T09:57:15.716Z,2.17
2023-01-02T09:59:55.877Z,1.98
2023-01-02T10:02:40.176Z,2.29
2023-01-02T10:05:27.738Z,2.06
2023-01-02T10:08:05.248Z,2.45
2023-01-02T10:10:40.684Z,1.97
2023-01-02T10:13:20.178Z,2.01
2023-01-02T10:15:51.324Z,2.17
2023-01-02T10:18:25.444Z,2.22
2023-01-02T10:20:56.305Z,2.11
2023-01-02T10:23:30.418Z,2.17
2023-01-02T10:26:03.734Z,2.27
2023-01-02T10:28:44.512Z,2.13
2023-01-02T10:31:21.287Z,2.14
2023-01-02T10:33:56.428Z,2.10
2023-01-02T10:36:26.659Z,2.36
2023-01-02T10:38:57.346Z,2.64
2023-01-02T10:41:25.845Z,2.23
2023-01-02T10:43:58.221Z,2.30
2023-01-02T10:46:29.860Z,2.34
2023-01-02T10:48:58.017Z,2.35
2023-01-02T10:51:25.137Z,2.24
2023-01-02T10:54:04.906Z,2.24
2023-01-02T10:56:35.436Z,2.13
2023-01-02T10:59:16.386Z,2.23
2023-01-02T11:01:51.966Z,2.31
2023-01-02T11:04:23.367Z,2.17
2023-01-02T11:06:54.929Z,2.39
2023-01-02T11:09:24.532Z,2.39
2023-01-02T11:11:54.325Z,2.56
2023-01-02T11:14:27.223Z,2.49
2023-01-02T11:17:02.138Z,1.99
2023-01-02T11:19:30.174Z,2.32
2023-01-02T11:21:58.453Z,2.23
2023-01-02T11:24:25.955Z,2.09
2023-01-02T11:26:54.683Z,2.22
2023-01-02T11:29:29.202Z,1.96
2023-01-02T11:32:00.493Z,2.17
2023-01-02T11:34:35.088Z,2.19
2023-01-02T11:37:06.250Z,2.23
2023-01-02T11:39:35.052Z,2.21
2023-01-02T11:42:16.151Z,2.06
2023-01-02T11:44:55.134Z,2.44
2023-01-02T11:47:32.390Z,2.25
2023-01-02T11:49:59.644Z,2.05
2023-01-02T11:52:39.261Z,2.18
2023-01-02T11:55:19.601Z,2.39
2023-01-02T11:57:54.682Z,2.35
2023-01-02T12:00:30.027Z,2.24
2023-01-02T12:03:05.979Z,2.47
2023-01-02T12:05:44.889Z,2.18
2023-01-02T12:08:27.867Z,2.10
2023-01-02T12:11:12.711Z,2.17
2023-01-02T12:13:55.922Z,2.10
2023-01-02T12:16:35.898Z,2.35
2023-01-02T12:19:29.058Z,2.06
2023-01-02T12:22:10.708Z,2.07
2023-01-02T12:24:59.448Z,2.46
2023-01-02T12:27:36.783Z,2.24
2023-01-02T12:30:14.231Z,2.53
2023-01-02T12:33:22.624Z,2.20
2023-01-02T12:36:08.844Z,2.37
2023-01-02T12:39:00.164Z,2.58
2023-01-02T12:42:01.765Z,2.21
2023-01-02T12:44:44.489Z,2.17
2023-01-02T12:47:54.258Z,2.22
2023-01-02T12:50:48.766Z,2.30
2023-01-02T12:53:38.499Z,2.25
2023-01-02T12:56:15.290Z,2.34
2023-01-02T12:59:08.101Z,2.55
2023-01-02T13:01:43.598Z,2.12
2023-01-02T13:04:19.905Z,2.38
2023-01-02T13:06:54.634Z,2.59
2023-01-02T13:09:32.482Z,2.39
2023-01-02T13:12:06.730Z,2.45
2023-01-02T13:14:40.136Z,2.53
2023-01-02T13:17:30.043Z,2.12
2023-01-02T13:20:04.378Z,2.38
2023-01-02T13:22:46.814Z,2.38
2023-01-02T13:25:20.001Z,2.43
2023-01-02T13:27:49.789Z,2.17
2023-01-02T13:30:39.213Z,2.47
2023-01-02T13:33:22.246Z,2.17
2023-01-02T13:35:50.505Z,2.47
2023-01-02T13:38:22.900Z,2.11
2023-01-02T13:40:56.999Z,2.23
2023-01-02T13:43:30.903Z,2.20
2023-01-02T13:46:00.049Z,2.28
2023-01-02T13:48:34.898Z,2.36
2023-01-02T13:51:05.521Z,2.27
2023-01-02T13:53:43.265Z,2.22
2023-01-02T13:56:13.839Z,2.19
2023-01-02T13:58:47.950Z,2.12
2023-01-02T14:01:48.765Z,2.12
2023-01-02T14:04:34.385Z,2.27
2023-01-02T14:07:37.825Z,2.11
2023-01-02T14:10:34.643Z,2.25
2023-01-02T14:13:25.647Z,2.37
2023-01-02T14:16:20.689Z,2.56
2023-01-02T14:19:15.466Z,2.53
2023-01-02T14:21:48.143Z,2.57
2023-01-02T14:24:29.591Z,2.95
2023-01-02T14:27:02.512Z,2.68
2023-01-02T14:29:32.937Z,2.79
2023-01-02T14:32:08.401Z,2.79
2023-01-02T14:34:46.875Z,2.79
2023-01-02T14:37:30.809Z,2.64
2023-01-02T14:40:10.229Z,2.49
2023-01-02T14:42:42.142Z,2.76
2023-01-02T14:45:17.555Z,2.92
2023-01-02T14:47:50.744Z,2.92
2023-01-02T14:50:24.246Z,2.88
2023-01-02T14:53:04.045Z,2.93
2023-01-02T14:55:41.966Z,2.95
2023-01-02T14:58:24.383Z,2.86
2023-01-02T15:00:52.929Z,3.07
2023-01-02T15:03:29.991Z,2.97
2023-01-02T15:06:03.819Z,3.17
2023-01-02T15:08:41.687Z,3.40
2023-01-02T15:11:18.922Z,2.81
2023-01-02T15:14:04.046Z,2.93
2023-01-02T15:16:45.097Z,3.26
2023-01-02T15:19:20.424Z,3.24
2023-01-02T15:21:47.703Z,3.05
2023-01-02T15:24:24.010Z,3.03
2023-01-02T15:26:53.011Z,3.27
2023-01-02T15:29:24.829Z,5.45
2023-01-02T15:31:54.066Z,7.28
2023-01-02T15:34:26.751Z,3.78
2023-01-02T15:36:55.417Z,3.39
2023-01-02T15:39:39.422Z,3.22
2023-01-02T15:42:12.165Z,3.33
2023-01-02T15:44:41.330Z,3.35
2023-01-02T15:47:10.262Z,3.20
2023-01-02T15:49:40.564Z,3.44
2023-01-02T15:52:19.517Z,3.60
2023-01-02T15:54:47.657Z,3.47
2023-01-02T15:57:17.414Z,3.57
2023-01-02T15:59:47.484Z,3.72
2023-01-02T16:02:33.593Z,3.53
2023-01-02T16:05:11.228Z,3.91
2023-01-02T16:07:39.910Z,4.16
2023-01-02T16:10:15.552Z,4.48
2023-01-02T16:12:42.943Z,4.00
2023-01-02T16:15:18.861Z,3.86
2023-01-02T16:17:47.577Z,4.09
2023-01-02T16:20:19.328Z,4.00
2023-01-02T16:22:50.706Z,3.77
2023-01-02T16:25:21.752Z,3.78
2023-01-02T16:27:54.373Z,3.65
2023-01-02T16:30:37.583Z,4.24
2023-01-02T16:33:21.259Z,4.00
2023-01-02T16:35:58.209Z,4.16
2023-01-02T16:38:28.728Z,3.95
2023-01-02T16:41:00.646Z,4.00
2023-01-02T16:43:31.098Z,3.86
2023-01-02T16:46:00.609Z,4.06
2023-01-02T16:48:29.728Z,4.31
2023-01-02T16:50:58.650Z,3.95
2023-01-02T16:53:29.052Z,4.15
2023-01-02T16:55:57.275Z,4.13
2023-01-02T16:58:24.670Z,4.14
2023-01-02T17:00:53.359Z,4.41
2023-01-02T17:03:24.634Z,4.37
2023-01-02T17:06:02.410Z,3.86
2023-01-02T17:08:31.400Z,4.16
2023-01-02T17:10:58.876Z,4.04
2023-01-02T17:13:26.701Z,3.69
2023-01-02T17:15:54.099Z,3.65
2023-01-02T17:18:23.492Z,4.01
2023-01-02T17:20:51.063Z,4.26
2023-01-02T17:23:18.339Z,3.41
2023-01-02T17:25:46.963Z,3.76
2023-01-02T17:28:14.670Z,4.02
2023-01-02T17:30:42.964Z,4.54
2023-01-02T17:33:10.642Z,4.82
2023-01-02T17:35:39.386Z,4.45
2023-01-02T17:38:07.356Z,4.64
2023-01-02T17:40:34.758Z,5.21
2023-01-02T17:43:01.973Z,4.90
2023-01-02T17:45:29.104Z,4.28
2023-01-02T17:48:10.500Z,4.39
2023-01-02T17:50:40.217Z,4.04
2023-01-02T17:53:08.056Z,4.04
2023-01-02T17:55:35.320Z,4.36
2023-01-02T17:58:02.469Z,4.07
2023-01-02T18:00:29.664Z,4.15
2023-01-02T18:02:56.797Z,4.27
2023-01-02T18:05:24.064Z,4.75
2023-01-02T18:07:52.739Z,4.52
2023-01-02T18:10:21.127Z,4.49
2023-01-02T18:12:50.105Z,4.45
2023-01-02T18:15:22.233Z,4.80
2023-01-02T18:17:50.158Z,4.84
2023-01-02T18:20:20.341Z,4.69
2023-01-02T18:22:50.762Z,4.79
2023-01-02T18:25:21.933Z,4.47
2023-01-02T18:27:49.226Z,4.63
2023-01-02T18:30:20.065Z,4.34
2023-01-02T18:32:47.762Z,4.58
2023-01-02T18:35:55.007Z,4.21
2023-01-02T18:38:19.819Z,4.57
2023-01-02T18:40:48.360Z,4.45
2023-01-02T18:43:22.763Z,4.36
2023-01-02T18:45:54.691Z,4.47
2023-01-02T18:48:23.083Z,4.39
2023-01-02T18:50:57.619Z,4.77
2023-01-02T18:53:29.137Z,5.92
2023-01-02T18:56:00.874Z,4.45
2023-01-02T18:58:38.306Z,4.24
2023-01-02T19:01:30.533Z,4.39
2023-01-02T19:04:22.347Z,4.26
2023-01-02T19:06:56.122Z,4.48
2023-01-02T19:09:28.519Z,4.65
2023-01-02T19:12:02.280Z,4.64
2023-01-02T19:14:39.528Z,4.27
2023-01-02T19:17:20.839Z,4.47
2023-01-02T19:19:48.319Z,4.19
2023-01-02T19:22:19.642Z,4.11
2023-01-02T19:24:46.882Z,4.40
2023-01-02T19:27:24.203Z,4.44
2023-01-02T19:29:52.559Z,4.30
2023-01-02T19:32:27.838Z,4.26
2023-01-02T19:34:56.607Z,3.99
2023-01-02T19:37:40.472Z,4.18
2023-01-02T19:40:18.979Z,4.49
2023-01-02T19:42:49.543Z,4.12
2023-01-02T19:45:19.288Z,4.14
2023-01-02T19:47:47.251Z,4.39
2023-01-02T19:50:16.924Z,4.34
2023-01-02T19:52:44.121Z,4.13
2023-01-02T19:55:12.454Z,4.14
2023-01-02T19:57:40.555Z,4.10
2023-01-02T20:00:13.158Z,4.04
2023-01-02T20:02:42.737Z,4.71
2023-01-02T20:05:10.362Z,4.69
2023-01-02T20:07:37.781Z,4.31
2023-01-02T20:10:05.752Z,4.21
2023-01-02T20:12:33.017Z,4.22
2023-01-02T20:15:03.763Z,4.08
2023-01-02T20:17:33.105Z,4.17
2023-01-02T20:20:00.380Z,4.68
2023-01-02T20:22:28.538Z,5.07
2023-01-02T20:24:55.766Z,4.04
2023-01-02T20:27:23.168Z,2.16
2023-01-02T20:29:50.701Z,3.28
2023-01-02T20:32:18.688Z,3.61
2023-01-02T20:34:47.581Z,3.50
2023-01-02T20:37:14.767Z,3.70
2023-01-02T20:39:42.042Z,4.05
2023-01-02T20:42:13.480Z,3.97
2023-01-02T20:44:41.082Z,4.19
2023-01-02T20:47:08.581Z,4.42
2023-01-02T20:49:35.799Z,4.03
2023-01-02T20:52:05.201Z,4.25
2023-01-02T20:54:32.370Z,4.36
2023-01-02T20:56:59.925Z,4.60
2023-01-02T20:59:27.175Z,4.29
2023-01-02T21:01:54.473Z,4.16
2023-01-02T21:04:29.213Z,4.27
2023-01-02T21:07:01.626Z,9.28
2023-01-02T21:09:30.209Z,5.00
2023-01-02T21:11:57.342Z,4.42
2023-01-02T21:14:24.564Z,4.99
2023-01-02T21:16:51.704Z,4.68
2023-01-02T21:19:18.843Z,4.84
2023-01-02T21:21:46.145Z,4.83
2023-01-02T21:24:13.259Z,4.77
2023-01-02T21:26:41.945Z,4.88
2023-01-02T21:29:09.064Z,4.70
2023-01-02T21:31:36.308Z,4.17
2023-01-02T21:34:03.468Z,4.15
2023-01-02T21:36:30.581Z,4.30
2023-01-02T21:38:57.880Z,4.64
2023-01-02T21:41:25.121Z,4.65
2023-01-02T21:43:53.740Z,4.47
2023-01-02T21:46:21.363Z,4.67
2023-01-02T21:48:48.659Z,4.64
2023-01-02T21:51:15.805Z,4.60
2023-01-02T21:53:43.229Z,4.61
2023-01-02T21:56:10.399Z,4.55
2023-01-02T21:58:38.657Z,4.77
2023-01-02T22:01:07.487Z,5.09
2023-01-02T22:03:34.877Z,4.81
2023-01-02T22:06:01.978Z,4.91
2023-01-02T22:08:29.103Z,4.78
2023-01-02T22:10:56.199Z,4.52
2023-01-02T22:13:23.390Z,4.81
2023-01-02T22:15:50.689Z,4.84
2023-01-02T22:18:19.397Z,4.78
2023-01-02T22:20:46.641Z,4.91
2023-01-02T22:23:13.870Z,5.15
2023-01-02T22:25:41.027Z,5.33
2023-01-02T22:28:08.326Z,5.16
2023-01-02T22:30:35.597Z,5.40
2023-01-02T22:33:04.505Z,4.73
2023-01-02T22:35:33.109Z,4.95
2023-01-02T22:38:00.471Z,4.78
2023-01-02T22:40:28.476Z,4.87
2023-01-02T22:43:01.746Z,5.16
2023-01-02T22:45:35.800Z,5.09
2023-01-02T22:48:07.536Z,5.37
2023-01-02T22:50:46.565Z,5.03
2023-01-02T22:53:20.385Z,4.94
2023-01-02T22:55:48.123Z,5.13
2023-01-02T22:58:15.824Z,5.31
2023-01-02T23:00:43.299Z,5.57
2023-01-02T23:03:13.448Z,5.49
2023-01-02T23:05:42.309Z,5.61
2023-01-02T23:08:09.686Z,6.12
2023-01-02T23:10:37.931Z,6.57
2023-01-02T23:13:05.364Z,7.08
2023-01-02T23:15:32.582Z,6.90
2023-01-02T23:17:59.793Z,7.29
2023-01-02T23:20:27.216Z,6.77
2023-01-02T23:22:55.838Z,7.31
2023-01-02T23:25:23.257Z,7.12
2023-01-02T23:27:50.875Z,7.35
2023-01-02T23:30:18.258Z,11.56
2023-01-02T23:32:45.675Z,10.15
2023-01-02T23:35:13.134Z,8.88
2023-01-02T23:37:40.415Z,8.39
2023-01-02T23:40:11.061Z,7.29
2023-01-02T23:42:38.322Z,7.28
2023-01-02T23:45:06.459Z,6.86
2023-01-02T23:47:33.499Z,7.10
2023-01-02T23:50:00.652Z,6.98
2023-01-02T23:52:27.778Z,6.71
2023-01-02T23:54:54.926Z,6.71
2023-01-02T23:57:23.465Z,7.22
2023-01-02T23:59:50.739Z,7.53
